createdAt,value
2023-03-07T00:01:43.704Z,34.57
2023-03-07T00:04:47.047Z,33.63
2023-03-07T00:07:49.712Z,38.97
2023-03-07T00:10:51.277Z,37.50
2023-03-07T00:13:54.102Z,34.77
2023-03-07T00:16:55.685Z,40.23
2023-03-07T00:19:57.250Z,33.23
2023-03-07T00:22:58.858Z,34.47
2023-03-07T00:26:10.400Z,31.33
2023-03-07T00:29:12.065Z,32.87
2023-03-07T00:32:13.628Z,36.50
2023-03-07T00:35:15.601Z,34.90
2023-03-07T00:38:17.291Z,34.03
2023-03-07T00:41:21.475Z,34.53
2023-03-07T00:44:23.059Z,35.17
2023-03-07T00:47:24.706Z,39.10
2023-03-07T00:50:26.274Z,29.97
2023-03-07T00:53:28.074Z,30.63
2023-03-07T00:56:29.694Z,36.03
2023-03-07T00:59:31.552Z,31.00
2023-03-07T01:02:33.194Z,33.40
2023-03-07T01:05:39.308Z,34.60
2023-03-07T01:08:41.253Z,31.10
2023-03-07T01:11:42.884Z,32.37
2023-03-07T01:14:44.485Z,33.50
2023-03-07T01:17:46.089Z,36.30
2023-03-07T01:20:47.980Z,32.40
2023-03-07T01:23:50.031Z,34.10
2023-03-07T01:26:51.655Z,29.63
2023-03-07T01:29:53.236Z,30.87
2023-03-07T01:32:56.580Z,36.83
2023-03-07T01:35:58.376Z,34.23
2023-03-07T01:39:14.150Z,34.53
2023-03-07T01:42:15.832Z,29.70
2023-03-07T01:45:35.534Z,29.47
2023-03-07T01:48:37.277Z,28.47
2023-03-07T01:51:41.783Z,27.40
2023-03-07T01:54:48.937Z,30.60
2023-03-07T01:57:51.998Z,31.43
2023-03-07T02:00:53.588Z,33.37
2023-03-07T02:04:21.126Z,32.80
2023-03-07T02:07:26.859Z,30.60
2023-03-07T02:10:29.948Z,39.37
2023-03-07T02:13:31.819Z,40.83
2023-03-07T02:16:33.560Z,32.40
2023-03-07T02:19:59.780Z,33.20
2023-03-07T02:23:02.417Z,31.67
2023-03-07T02:26:39.252Z,38.30
2023-03-07T02:29:40.869Z,28.30
2023-03-07T02:32:42.545Z,28.20
2023-03-07T02:35:44.991Z,29.03
2023-03-07T02:38:48.791Z,30.90
2023-03-07T02:41:54.975Z,29.63
2023-03-07T02:44:58.876Z,32.00
2023-03-07T02:48:00.565Z,29.83
2023-03-07T02:51:02.262Z,29.80
2023-03-07T02:54:04.046Z,27.23
2023-03-07T02:57:05.765Z,23.90
2023-03-07T03:00:08.283Z,25.90
2023-03-07T03:03:09.865Z,25.80
2023-03-07T03:06:11.449Z,24.23
2023-03-07T03:09:13.010Z,25.07
2023-03-07T03:12:14.572Z,27.97
2023-03-07T03:15:16.346Z,25.13
2023-03-07T03:18:18.024Z,23.10
2023-03-07T03:21:19.614Z,19.83
2023-03-07T03:24:21.216Z,25.97
2023-03-07T03:27:22.777Z,23.90
2023-03-07T03:30:24.705Z,20.63
2023-03-07T03:33:29.135Z,22.77
2023-03-07T03:36:31.018Z,21.10
2023-03-07T03:39:32.602Z,24.70
2023-03-07T03:42:34.180Z,21.53
2023-03-07T03:45:35.763Z,21.67
2023-03-07T03:48:37.547Z,19.37
2023-03-07T03:51:39.335Z,21.33
2023-03-07T03:54:40.886Z,21.57
2023-03-07T03:57:42.428Z,24.60
2023-03-07T04:00:44.787Z,24.10
2023-03-07T04:03:51.669Z,29.33
2023-03-07T04:06:53.470Z,22.23
2023-03-07T04:09:55.020Z,24.63
2023-03-07T04:12:56.780Z,29.60
2023-03-07T04:15:58.722Z,24.53
2023-03-07T04:19:00.302Z,27.93
2023-03-07T04:22:01.887Z,27.10
2023-03-07T04:25:03.653Z,24.80
2023-03-07T04:28:05.225Z,28.27
2023-03-07T04:31:06.809Z,24.40
2023-03-07T04:34:08.459Z,26.03
2023-03-07T04:37:10.039Z,23.90
2023-03-07T04:40:12.103Z,26.53
2023-03-07T04:43:13.747Z,24.77
2023-03-07T04:46:16.796Z,24.27
2023-03-07T04:49:18.467Z,25.20
2023-03-07T04:52:20.043Z,27.07
2023-03-07T04:55:21.695Z,25.90
2023-03-07T04:58:23.267Z,26.57
2023-03-07T05:01:25.171Z,26.03
2023-03-07T05:04:26.931Z,24.00
2023-03-07T05:07:29.895Z,23.53
2023-03-07T05:10:32.772Z,23.73
2023-03-07T05:13:34.391Z,23.23
2023-03-07T05:16:35.948Z,24.37
2023-03-07T05:19:37.514Z,25.63
2023-03-07T05:22:39.189Z,31.30
2023-03-07T05:25:43.226Z,28.33
2023-03-07T05:28:45.168Z,26.60
2023-03-07T05:31:46.969Z,28.50
2023-03-07T05:34:48.562Z,26.87
2023-03-07T05:37:51.526Z,28.23
2023-03-07T05:40:53.097Z,28.60
2023-03-07T05:43:55.383Z,31.73
2023-03-07T05:46:57.132Z,24.73
2023-03-07T05:49:58.711Z,31.17
2023-03-07T05:53:00.369Z,36.83
2023-03-07T05:56:02.008Z,31.60
2023-03-07T05:59:04.318Z,27.40
2023-03-07T06:02:05.924Z,28.60
2023-03-07T06:05:07.886Z,31.57
2023-03-07T06:08:09.558Z,30.43
2023-03-07T06:11:11.428Z,27.00
2023-03-07T06:14:13.170Z,28.30
2023-03-07T06:17:14.823Z,30.13
2023-03-07T06:20:16.665Z,28.93
2023-03-07T06:23:18.243Z,33.63
2023-03-07T06:26:20.043Z,28.27
2023-03-07T06:29:21.727Z,33.97
2023-03-07T06:32:23.382Z,23.70
2023-03-07T06:35:25.199Z,29.37
2023-03-07T06:38:27.859Z,30.27
2023-03-07T06:41:29.611Z,25.47
2023-03-07T06:44:31.308Z,30.97
2023-03-07T06:47:32.910Z,30.90
2023-03-07T06:50:35.722Z,24.90
2023-03-07T06:53:37.573Z,31.03
2023-03-07T06:56:39.297Z,34.13
2023-03-07T06:59:40.936Z,26.50
2023-03-07T07:02:42.710Z,26.83
2023-03-07T07:05:44.492Z,25.07
2023-03-07T07:08:46.133Z,23.57
2023-03-07T07:11:48.144Z,25.50
2023-03-07T07:14:50.091Z,32.60
2023-03-07T07:17:52.431Z,22.23
2023-03-07T07:20:55.878Z,25.30
2023-03-07T07:23:58.052Z,21.20
2023-03-07T07:26:59.710Z,22.90
2023-03-07T07:30:01.398Z,24.60
2023-03-07T07:33:03.199Z,22.20
2023-03-07T07:36:05.451Z,22.07
2023-03-07T07:39:07.924Z,23.63
2023-03-07T07:42:10.879Z,22.33
2023-03-07T07:45:12.641Z,20.10
2023-03-07T07:48:14.274Z,21.87
2023-03-07T07:51:16.337Z,16.00
2023-03-07T07:54:18.179Z,23.27
2023-03-07T07:57:22.427Z,21.90
2023-03-07T08:00:24.555Z,18.17
2023-03-07T08:03:26.911Z,23.03
2023-03-07T08:06:28.991Z,22.30
2023-03-07T08:09:31.151Z,19.20
2023-03-07T08:12:32.807Z,15.77
2023-03-07T08:15:34.603Z,19.60
2023-03-07T08:18:37.343Z,17.10
2023-03-07T08:21:39.018Z,20.00
2023-03-07T08:24:41.227Z,18.40
2023-03-07T08:27:43.172Z,20.50
2023-03-07T08:30:44.766Z,15.57
2023-03-07T08:33:47.490Z,17.73
2023-03-07T08:36:53.031Z,14.07
2023-03-07T08:39:54.857Z,18.73
2023-03-07T08:42:56.571Z,12.37
2023-03-07T08:45:58.909Z,17.23
2023-03-07T08:49:00.563Z,14.40
2023-03-07T08:52:02.412Z,21.13
2023-03-07T08:55:04.623Z,14.73
2023-03-07T08:58:06.702Z,15.10
2023-03-07T09:01:08.926Z,15.43
2023-03-07T09:04:10.658Z,18.20
2023-03-07T09:07:12.363Z,15.80
2023-03-07T09:10:13.993Z,14.43
2023-03-07T09:13:17.982Z,15.30
2023-03-07T09:16:20.733Z,13.93
2023-03-07T09:19:23.713Z,13.30
2023-03-07T09:22:26.619Z,13.13
2023-03-07T09:25:28.348Z,13.20
2023-03-07T09:28:30.032Z,13.10
2023-03-07T09:31:35.090Z,15.03
2023-03-07T09:34:36.803Z,13.50
2023-03-07T09:37:38.537Z,10.40
2023-03-07T09:40:46.892Z,12.60
2023-03-07T09:43:55.236Z,11.93
2023-03-07T09:47:34.651Z,10.90
2023-03-07T09:51:16.728Z,12.63
2023-03-07T09:54:46.642Z,11.33
2023-03-07T09:57:56.227Z,13.13
2023-03-07T10:01:02.397Z,12.53
2023-03-07T10:04:07.145Z,12.13
2023-03-07T10:07:12.865Z,8.63
2023-03-07T10:10:31.565Z,9.27
2023-03-07T10:13:54.586Z,9.80
2023-03-07T10:17:40.984Z,11.67
2023-03-07T10:20:57.580Z,10.70
2023-03-07T10:24:27.757Z,11.10
2023-03-07T10:27:31.099Z,12.03
2023-03-07T10:30:32.947Z,10.03
2023-03-07T10:33:35.142Z,10.60
2023-03-07T10:36:46.538Z,9.20
2023-03-07T10:39:56.342Z,10.70
2023-03-07T10:43:02.269Z,10.23
2023-03-07T10:46:32.208Z,10.17
2023-03-07T10:49:47.186Z,11.13
2023-03-07T10:52:55.306Z,10.17
2023-03-07T10:56:17.782Z,8.63
2023-03-07T10:59:24.975Z,10.63
2023-03-07T11:02:35.252Z,9.60
2023-03-07T11:05:37.446Z,12.77
2023-03-07T11:08:44.915Z,10.10
2023-03-07T11:12:05.006Z,11.43
2023-03-07T11:15:15.221Z,11.97
2023-03-07T11:18:38.800Z,11.63
2023-03-07T11:21:40.492Z,8.70
2023-03-07T11:24:49.778Z,13.93
2023-03-07T11:27:57.412Z,11.53
2023-03-07T11:31:08.498Z,8.83
2023-03-07T11:34:26.086Z,11.00
2023-03-07T11:37:34.628Z,10.90
2023-03-07T11:40:58.634Z,10.37
2023-03-07T11:44:05.722Z,12.77
2023-03-07T11:47:22.050Z,12.10
2023-03-07T11:50:24.806Z,10.67
2023-03-07T11:53:39.803Z,10.10
2023-03-07T11:56:47.060Z,14.43
2023-03-07T12:00:17.895Z,15.37
2023-03-07T12:03:55.784Z,13.97
2023-03-07T12:07:06.412Z,12.43
2023-03-07T12:10:36.064Z,12.77
2023-03-07T12:13:57.055Z,9.93
2023-03-07T12:17:25.621Z,8.03
2023-03-07T12:20:37.862Z,10.47
2023-03-07T12:23:48.200Z,7.83
2023-03-07T12:27:29.008Z,11.30
2023-03-07T12:30:44.148Z,9.73
2023-03-07T12:34:01.451Z,11.17
2023-03-07T12:37:13.176Z,12.00
2023-03-07T12:40:25.860Z,9.97
2023-03-07T12:43:33.781Z,11.50
2023-03-07T12:46:51.396Z,14.20
2023-03-07T12:50:17.885Z,11.57
2023-03-07T12:53:48.310Z,13.73
2023-03-07T12:57:12.691Z,10.07
2023-03-07T13:00:20.666Z,11.97
2023-03-07T13:03:41.468Z,11.37
2023-03-07T13:06:44.623Z,11.37
2023-03-07T13:09:48.902Z,11.40
2023-03-07T13:12:52.694Z,11.53
2023-03-07T13:16:04.367Z,10.00
2023-03-07T13:19:31.049Z,12.40
2023-03-07T13:22:32.640Z,11.50
2023-03-07T13:25:35.898Z,12.67
2023-03-07T13:28:40.210Z,12.30
2023-03-07T13:31:42.919Z,10.50
2023-03-07T13:34:47.966Z,11.77
2023-03-07T13:38:03.624Z,14.53
2023-03-07T13:41:09.022Z,12.90
2023-03-07T13:44:40.812Z,10.40
2023-03-07T13:47:43.777Z,15.80
2023-03-07T13:50:45.340Z,13.23
2023-03-07T13:53:56.468Z,14.13
2023-03-07T13:56:58.130Z,15.77
2023-03-07T14:00:01.039Z,14.90
2023-03-07T14:03:03.239Z,13.87
2023-03-07T14:06:18.309Z,11.97
2023-03-07T14:09:25.248Z,12.30
2023-03-07T14:12:51.985Z,16.33
2023-03-07T14:16:03.800Z,16.57
2023-03-07T14:19:11.599Z,11.73
2023-03-07T14:22:31.686Z,10.70
2023-03-07T14:25:34.688Z,11.20
2023-03-07T14:28:36.316Z,12.50
2023-03-07T14:31:40.494Z,11.93
2023-03-07T14:34:47.831Z,13.30
2023-03-07T14:37:49.510Z,12.40
2023-03-07T14:41:04.279Z,15.00
2023-03-07T14:44:30.531Z,15.13
2023-03-07T14:48:00.178Z,13.90
2023-03-07T14:51:11.866Z,10.50
2023-03-07T14:54:25.566Z,11.90
2023-03-07T14:57:46.173Z,13.63
2023-03-07T15:00:58.632Z,13.27
2023-03-07T15:04:00.344Z,11.43
2023-03-07T15:07:04.666Z,12.20
2023-03-07T15:10:06.627Z,9.63
2023-03-07T15:13:16.761Z,10.10
2023-03-07T15:16:39.831Z,12.53
2023-03-07T15:19:49.136Z,12.07
2023-03-07T15:23:10.312Z,13.10
2023-03-07T15:26:21.117Z,10.57
2023-03-07T15:29:25.969Z,9.37
2023-03-07T15:32:40.739Z,9.60
2023-03-07T15:35:43.906Z,12.57
2023-03-07T15:38:48.320Z,10.27
2023-03-07T15:42:04.712Z,10.73
2023-03-07T15:45:06.668Z,10.30
2023-03-07T15:48:24.769Z,10.80
2023-03-07T15:51:35.782Z,10.67
2023-03-07T15:54:43.179Z,9.23
2023-03-07T15:57:52.865Z,12.67
2023-03-07T16:01:19.382Z,16.50
2023-03-07T16:04:34.869Z,12.83
2023-03-07T16:07:36.491Z,10.20
2023-03-07T16:10:39.832Z,13.00
2023-03-07T16:13:44.015Z,12.63
2023-03-07T16:16:45.713Z,15.40
2023-03-07T16:19:47.721Z,14.13
2023-03-07T16:22:49.702Z,16.47
2023-03-07T16:25:51.385Z,14.40
2023-03-07T16:28:54.068Z,15.03
2023-03-07T16:31:55.825Z,14.30
2023-03-07T16:34:57.425Z,12.30
2023-03-07T16:37:59.297Z,13.10
2023-03-07T16:41:03.595Z,14.73
2023-03-07T16:44:05.764Z,13.40
2023-03-07T16:47:14.306Z,15.70
2023-03-07T16:50:18.106Z,11.57
2023-03-07T16:53:19.727Z,13.73
2023-03-07T16:56:27.483Z,15.00
2023-03-07T16:59:37.132Z,15.73
2023-03-07T17:02:38.800Z,14.93
2023-03-07T17:05:40.415Z,17.90
2023-03-07T17:08:43.350Z,16.20
2023-03-07T17:11:51.085Z,12.17
2023-03-07T17:14:53.473Z,22.07
2023-03-07T17:17:55.855Z,25.10
2023-03-07T17:20:57.472Z,25.57
2023-03-07T17:23:59.153Z,18.17
2023-03-07T17:27:03.514Z,14.97
2023-03-07T17:30:05.885Z,11.77
2023-03-07T17:33:09.725Z,14.13
2023-03-07T17:36:12.165Z,11.27
2023-03-07T17:39:13.807Z,17.10
2023-03-07T17:42:15.538Z,16.63
2023-03-07T17:45:17.888Z,13.63
2023-03-07T17:48:19.546Z,12.43
2023-03-07T17:51:21.689Z,13.63
2023-03-07T17:54:23.357Z,10.70
2023-03-07T17:57:26.526Z,11.63
2023-03-07T18:00:28.244Z,17.07
2023-03-07T18:03:29.849Z,10.10
2023-03-07T18:06:33.884Z,14.90
2023-03-07T18:09:35.535Z,12.23
2023-03-07T18:12:39.305Z,11.60
2023-03-07T18:15:45.658Z,13.27
2023-03-07T18:18:58.938Z,16.10
2023-03-07T18:22:02.273Z,12.20
2023-03-07T18:25:10.020Z,12.63
2023-03-07T18:28:11.734Z,13.03
2023-03-07T18:31:16.372Z,13.03
2023-03-07T18:34:18.036Z,10.33
2023-03-07T18:37:19.949Z,11.90
2023-03-07T18:40:22.844Z,11.50
2023-03-07T18:43:24.536Z,11.63
2023-03-07T18:46:30.546Z,15.00
2023-03-07T18:49:32.998Z,14.40
2023-03-07T18:52:34.670Z,14.07
2023-03-07T18:55:39.039Z,15.80
2023-03-07T18:58:41.597Z,14.50
2023-03-07T19:01:44.519Z,13.50
2023-03-07T19:04:46.257Z,9.73
2023-03-07T19:07:47.978Z,11.10
2023-03-07T19:10:52.383Z,12.60
2023-03-07T19:13:53.941Z,9.03
2023-03-07T19:16:55.578Z,11.60
2023-03-07T19:19:59.292Z,12.17
2023-03-07T19:23:01.072Z,13.23
2023-03-07T19:26:04.357Z,10.87
2023-03-07T19:29:06.064Z,9.47
2023-03-07T19:32:07.755Z,9.63
2023-03-07T19:35:09.627Z,16.50
2023-03-07T19:38:11.261Z,14.00
2023-03-07T19:41:15.113Z,11.63
2023-03-07T19:44:17.463Z,12.20
2023-03-07T19:47:19.081Z,12.37
2023-03-07T19:50:20.737Z,12.40
2023-03-07T19:53:22.580Z,12.77
2023-03-07T19:56:27.377Z,13.13
2023-03-07T19:59:28.961Z,18.23
2023-03-07T20:02:30.688Z,10.10
2023-03-07T20:05:32.475Z,13.70
2023-03-07T20:08:34.814Z,14.70
2023-03-07T20:11:37.943Z,14.60
2023-03-07T20:14:42.734Z,12.10
2023-03-07T20:17:44.405Z,13.27
2023-03-07T20:20:46.068Z,10.33
2023-03-07T20:23:48.409Z,13.27
2023-03-07T20:26:50.100Z,12.20
2023-03-07T20:29:51.819Z,14.37
2023-03-07T20:32:53.416Z,12.03
2023-03-07T20:36:15.064Z,12.37
2023-03-07T20:39:16.948Z,13.50
2023-03-07T20:42:18.635Z,13.10
2023-03-07T20:45:20.958Z,10.80
2023-03-07T20:48:22.845Z,12.20
2023-03-07T20:51:28.176Z,11.30
2023-03-07T20:54:29.846Z,11.50
2023-03-07T20:57:31.434Z,10.83
2023-03-07T21:00:32.995Z,11.43
2023-03-07T21:03:35.253Z,12.67
2023-03-07T21:06:39.226Z,12.40
2023-03-07T21:09:40.799Z,12.03
2023-03-07T21:12:42.395Z,14.10
2023-03-07T21:15:53.367Z,12.57
2023-03-07T21:19:01.734Z,14.60
2023-03-07T21:22:04.060Z,14.83
2023-03-07T21:25:06.511Z,13.10
2023-03-07T21:28:08.473Z,14.60
2023-03-07T21:31:13.279Z,12.90
2023-03-07T21:34:15.275Z,15.57
2023-03-07T21:37:16.968Z,12.57
2023-03-07T21:40:18.826Z,14.27
2023-03-07T21:43:20.721Z,14.73
2023-03-07T21:46:22.730Z,16.77
2023-03-07T21:49:24.516Z,15.97
2023-03-07T21:52:27.901Z,13.30
2023-03-07T21:55:29.665Z,14.03
2023-03-07T21:58:32.342Z,13.20
2023-03-07T22:01:34.186Z,16.90
2023-03-07T22:04:35.910Z,13.87
2023-03-07T22:07:38.098Z,15.23
2023-03-07T22:10:39.776Z,13.27
2023-03-07T22:13:42.298Z,13.50
2023-03-07T22:16:44.254Z,14.80
2023-03-07T22:19:45.926Z,13.87
2023-03-07T22:22:47.577Z,17.67
2023-03-07T22:25:49.432Z,13.10
2023-03-07T22:28:52.505Z,13.60
2023-03-07T22:31:54.267Z,12.10
2023-03-07T22:34:56.129Z,8.63
2023-03-07T22:37:58.156Z,10.17
2023-03-07T22:41:04.913Z,7.90
2023-03-07T22:44:06.529Z,9.10
2023-03-07T22:47:08.461Z,6.53
2023-03-07T22:50:10.793Z,7.73
2023-03-07T22:53:12.405Z,8.33
2023-03-07T22:56:16.005Z,11.77
2023-03-07T22:59:18.905Z,7.70
2023-03-07T23:02:20.527Z,7.73
2023-03-07T23:05:22.206Z,7.00
2023-03-07T23:08:23.801Z,7.20
2023-03-07T23:11:27.206Z,7.60
2023-03-07T23:14:28.800Z,7.17
2023-03-07T23:17:30.413Z,7.10
2023-03-07T23:20:32.082Z,7.13
2023-03-07T23:23:34.287Z,6.80
2023-03-07T23:26:38.508Z,7.43
2023-03-07T23:29:40.138Z,6.73
2023-03-07T23:32:41.799Z,7.80
2023-03-07T23:35:43.501Z,6.07
2023-03-07T23:38:48.933Z,7.37
2023-03-07T23:41:50.521Z,3.53
2023-03-07T23:44:52.128Z,3.70
2023-03-07T23:47:53.706Z,3.80
2023-03-07T23:50:55.321Z,3.17
2023-03-07T23:53:56.972Z,4.13
2023-03-07T23:56:58.596Z,3.27
